Date,TemperatureHighF,TemperatureAvgF,TemperatureLowF,DewpointHighF,DewpointAvgF,DewpointLowF,HumidityHigh,HumidityAvg,HumidityLow,PressureMaxIn,PressureMinIn,WindSpeedMaxMPH,WindSpeedAvgMPH,GustSpeedMaxMPH,PrecipitationSumIn
2013-1-1,61,45,33,41,33,26,99,69,26,0.00,40.00,6,3,12,0.00
2013-1-2,68,46,35,34,29,24,78,55,21,0.00,40.00,8,3,18,0.00
2013-1-3,71,47,33,34,30,24,86,57,19,0.00,40.00,8,3,16,0.00
2013-1-4,70,45,32,33,27,15,84,56,12,0.00,40.00,7,3,31,0.00
2013-1-5,67,46,32,40,33,19,85,64,16,0.00,40.00,5,2,16,0.00
2013-1-6,54,46,40,50,43,38,100,92,63,0.00,40.00,10,4,44,0.05
2013-1-7,66,49,38,45,39,31,99,73,32,0.00,40.00,8,3,58,0.01
2013-1-8,80,52,35,40,36,30,96,62,16,0.00,40.00,6,3,11,0.00
2013-1-9,70,50,41,52,42,35,99,77,28,0.00,40.00,3,2,10,0.00
2013-1-10,58,49,40,48,30,18,99,56,25,0.00,40.00,11,6,33,0.00
2013-1-11,54,42,32,29,22,15,74,48,22,0.00,40.00,9,4,30,0.00
2013-1-12,57,40,32,28,25,18,79,59,24,0.00,40.00,9,4,36,0.00
2013-1-13,57,40,29,31,27,19,91,65,22,0.00,40.00,9,4,20,0.00
2013-1-14,56,40,29,27,16,4,67,40,19,0.00,40.00,7,4,55,0.00
2013-1-15,64,43,29,31,25,20,76,53,20,0.00,40.00,7,4,14,0.00
2013-1-17,82,58,34,36,28,20,82,39,10,0.00,40.00,7,3,51,0.00
2013-1-18,81,59,37,34,27,15,63,35,9,0.00,40.00,6,3,11,0.00
2013-1-19,80,57,35,33,22,13,59,31,8,0.00,40.00,6,3,14,0.00
2013-1-20,83,59,36,32,22,15,55,30,8,0.00,40.00,7,3,11,0.00
2013-1-21,82,56,38,32,22,8,52,30,6,0.00,40.00,5,3,12,0.00
2013-1-22,82,59,36,34,25,16,53,31,9,0.00,40.00,9,3,20,0.00
2013-1-23,67,55,45,51,35,28,99,49,27,0.00,40.00,6,3,30,0.01
2013-1-24,62,55,51,60,55,51,100,99,88,0.00,40.00,5,2,10,1.02
2013-1-25,60,56,54,60,56,54,100,100,100,0.00,40.00,3,2,12,0.59
2013-1-26,71,58,49,61,54,49,100,91,61,0.00,40.00,7,3,40,0.38
2013-1-27,63,52,44,55,41,24,100,71,26,0.00,40.00,9,4,25,0.06
2013-1-28,61,49,37,30,26,22,71,43,27,0.00,40.00,11,6,30,0.01
2013-1-29,63,48,38,37,33,25,95,60,31,0.00,40.00,10,3,40,0.00
2013-1-30,75,51,35,44,38,35,99,68,25,0.00,40.00,8,3,18,0.00
2013-1-31,80,59,38,44,41,38,99,56,23,0.00,40.00,7,4,32,0.00
2013-2-1,80,56,42,46,42,36,99,67,25,0.00,40.00,11,3,18,0.00
2013-2-2,71,58,47,50,46,42,90,67,36,0.00,40.00,4,2,15,0.00
2013-2-3,76,57,42,48,44,40,99,67,33,0.00,40.00,8,3,15,0.00
2013-2-4,76,53,39,50,44,39,100,78,31,0.00,40.00,5,3,36,0.00
2013-2-5,59,50,41,53,48,41,100,94,71,0.00,40.00,10,3,22,0.00
2013-2-6,66,52,40,52,47,40,100,84,49,0.00,40.00,6,3,52,0.00
2013-2-7,61,45,35,48,41,35,100,88,62,0.00,40.00,9,3,20,0.00
2013-2-8,54,45,36,42,37,27,99,74,50,0.00,40.00,12,6,34,0.00
2013-2-9,60,47,37,38,32,27,98,59,32,0.00,40.00,12,5,20,0.00
2013-2-10,57,45,32,42,38,32,99,80,48,0.00,40.00,7,4,16,0.00
2013-2-11,63,44,32,41,34,28,100,72,36,0.00,40.00,9,4,19,0.00
2013-2-12,64,45,32,37,33,30,96,69,29,0.00,40.00,8,4,21,0.00
2013-2-13,70,50,33,38,34,27,99,63,22,0.00,40.00,10,4,69,0.00
2013-2-14,79,55,36,40,36,33,91,56,20,0.00,40.00,5,3,13,0.00
2013-2-15,84,59,41,42,31,21,78,44,10,0.00,40.00,7,4,52,0.00
2013-2-16,84,59,41,37,25,16,55,34,9,0.00,40.00,9,3,53,0.00
2013-2-17,73,54,38,52,35,26,99,55,23,0.00,40.00,7,3,16,0.00
2013-2-18,61,51,46,50,46,43,100,85,55,0.00,40.00,9,3,18,0.00
2013-2-19,58,49,41,49,44,35,100,85,56,0.00,40.00,11,4,23,0.13
2013-2-20,62,50,38,32,26,21,70,41,23,0.00,40.00,11,8,48,0.14
2013-2-21,62,46,33,39,33,26,82,62,38,0.00,40.00,10,4,60,0.00
2013-2-22,66,48,32,37,32,25,89,59,25,0.00,40.00,8,4,17,0.00
2013-2-23,71,52,35,47,34,11,94,57,16,0.00,40.00,14,5,56,0.00
2013-2-24,68,51,35,32,26,14,69,42,13,0.00,40.00,11,4,36,0.00
2013-2-25,67,49,34,37,30,23,87,53,19,0.00,40.00,9,4,25,0.00
2013-2-26,71,50,35,36,28,21,91,49,16,0.00,40.00,10,4,68,0.00
2013-2-27,73,53,37,28,23,18,58,35,13,0.00,40.00,10,4,31,0.00
2013-2-28,78,57,37,31,26,22,62,35,13,0.00,40.00,9,4,55,0.00
2013-3-1,84,62,41,36,28,21,61,34,10,0.00,40.00,10,4,30,0.00
2013-3-2,85,63,44,38,31,24,58,34,11,0.00,40.00,10,4,54,0.00
2013-3-3,73,58,46,52,42,34,99,61,28,0.00,40.00,14,4,32,0.00
2013-3-4,71,53,41,57,46,41,100,83,40,0.00,40.00,10,3,42,0.00
2013-3-5,63,51,41,51,47,41,100,87,64,0.00,40.00,11,5,69,0.00
2013-3-6,57,50,46,49,40,-100,99,83,70,0.00,40.00,9,-41,16,0.10
2013-3-7,63,51,44,48,44,35,100,79,43,0.00,40.00,7,3,63,0.29
2013-3-8,56,48,40,49,44,40,100,85,62,0.00,40.00,11,5,50,0.80
2013-3-9,68,51,36,42,37,27,99,63,23,0.00,40.00,14,6,41,0.01
2013-3-10,73,55,39,42,36,32,90,55,22,0.00,40.00,12,5,23,0.00
2013-3-11,78,56,39,42,38,35,93,59,21,0.00,40.00,11,4,22,0.00
2013-3-12,86,59,41,47,42,37,97,62,19,0.00,40.00,6,3,56,0.00
2013-3-13,90,64,44,45,40,36,78,49,15,0.00,40.00,9,3,49,0.00
2013-3-14,89,63,45,50,43,37,82,56,16,0.00,40.00,10,3,21,0.00
2013-3-15,79,60,47,56,50,45,100,74,37,0.00,40.00,10,2,78,0.00
2013-3-16,73,56,46,59,51,45,100,86,54,0.00,40.00,9,3,56,0.00
2013-3-17,77,56,46,56,49,46,100,83,35,0.00,40.00,5,3,36,0.00
2013-3-18,67,54,45,52,50,45,100,89,57,0.00,40.00,8,3,25,0.00
2013-3-19,73,58,44,55,50,44,100,79,40,0.00,40.00,10,4,21,0.00
2013-3-20,73,60,50,55,51,49,100,78,45,0.00,40.00,12,4,43,0.00
2013-3-21,79,63,47,54,46,12,100,61,10,0.00,40.00,8,4,24,0.00
2013-3-22,79,63,47,39,24,-1,44,25,6,0.00,40.00,13,6,36,0.00
2013-3-23,77,58,41,47,30,5,74,38,9,0.00,40.00,14,4,32,0.00
2013-3-24,79,54,40,43,37,28,92,59,17,0.00,40.00,9,3,55,0.00
2013-3-25,78,57,41,48,39,33,82,55,25,0.00,40.00,9,3,18,0.00
2013-3-26,71,56,41,50,45,40,99,71,42,0.00,40.00,9,4,33,0.00
2013-3-27,68,53,43,53,47,43,100,84,54,0.00,40.00,10,5,46,0.00
2013-3-28,74,62,50,54,52,50,99,73,47,0.00,40.00,12,6,23,0.00
2013-3-29,84,60,44,55,50,44,100,76,33,0.00,40.00,7,3,16,0.00
2013-3-30,78,58,49,55,47,-100,100,78,27,0.00,40.00,12,3,26,0.00
2013-3-31,64,57,48,61,54,48,99,93,69,0.00,40.00,11,3,20,0.17
2013-4-1,64,55,48,56,51,48,99,88,58,0.00,40.00,10,5,37,0.10
2013-4-2,74,58,44,56,50,44,100,80,42,0.00,40.00,9,4,68,0.00
2013-4-3,83,59,44,55,49,43,100,76,26,0.00,40.00,8,3,38,0.00
2013-4-4,72,58,50,55,53,50,100,85,54,0.00,40.00,20,5,43,0.00
2013-4-5,73,61,52,56,54,51,100,82,53,0.00,40.00,14,4,25,0.00
2013-4-6,83,62,47,56,49,35,100,71,20,0.00,40.00,10,4,27,0.00
2013-4-7,84,67,54,53,45,28,85,50,13,0.00,40.00,16,6,44,0.00
2013-4-8,66,58,44,48,35,26,94,48,24,0.00,40.00,15,8,53,0.00
2013-4-9,75,63,50,28,23,10,38,23,11,0.00,40.00,18,8,46,0.00
2013-4-10,81,66,45,32,28,23,54,28,12,0.00,40.00,9,5,35,0.00
2013-4-11,75,59,45,48,40,32,76,52,26,0.00,40.00,12,4,23,0.00
2013-4-12,79,58,45,52,48,42,99,73,39,0.00,40.00,7,3,53,0.00
2013-4-13,66,55,47,55,52,47,100,90,65,0.00,40.00,9,4,66,0.00
2013-4-14,60,56,52,55,52,50,100,90,74,0.00,40.00,8,3,15,0.00
2013-4-15,61,55,45,52,49,44,99,80,62,0.00,40.00,7,3,41,0.00
2013-4-16,72,52,37,44,31,8,99,58,11,0.00,40.00,11,5,34,0.00
2013-4-17,73,58,43,29,20,12,42,24,10,0.00,40.00,18,8,35,0.00
2013-4-18,77,58,41,29,21,14,47,28,9,0.00,40.00,15,6,30,0.00
2013-4-19,82,59,42,41,29,14,58,36,8,0.00,40.00,14,4,26,0.00
2013-4-20,90,68,53,51,37,26,72,35,10,0.00,40.00,15,5,34,0.00
2013-4-21,87,64,47,51,42,35,83,52,17,0.00,40.00,11,4,21,0.00
2013-4-22,75,60,48,55,50,45,100,75,41,0.00,40.00,10,4,50,0.00
2013-4-23,77,61,52,55,52,49,97,73,42,0.00,40.00,9,4,52,0.00
2013-4-24,60,56,50,55,53,50,99,91,77,0.00,40.00,25,4,56,0.00
2013-4-25,70,60,50,54,47,41,99,67,38,0.00,40.00,12,5,68,0.00
2013-4-26,79,62,44,52,48,43,99,66,37,0.00,40.00,10,4,51,0.00
2013-4-27,88,65,48,55,50,45,100,67,25,0.00,40.00,12,4,23,0.00
2013-4-28,87,62,50,60,54,50,100,81,30,0.00,40.00,10,3,37,0.00
2013-4-29,80,59,51,60,54,51,100,87,42,0.00,40.00,9,3,17,0.00
2013-4-30,64,58,51,56,53,49,99,82,67,0.00,40.00,7,4,54,0.00
2013-5-1,78,64,49,55,52,49,99,70,42,0.00,40.00,9,4,21,0.00
2013-5-2,95,69,46,57,38,9,100,48,4,0.00,40.00,9,4,51,0.00
2013-5-3,95,69,49,32,27,11,36,24,5,0.00,40.00,12,4,39,0.00
2013-5-4,79,66,52,56,47,29,91,53,31,0.00,40.00,12,5,32,0.00
2013-5-5,65,59,55,53,51,49,91,75,60,0.00,40.00,6,4,39,0.00
2013-5-6,63,58,54,58,54,49,100,89,68,0.00,40.00,4,2,33,0.52
2013-5-7,68,60,53,56,52,46,100,77,48,0.00,40.00,11,5,47,0.01
2013-5-8,70,59,48,54,50,42,100,75,40,0.00,40.00,11,5,22,0.00
2013-5-9,73,59,46,54,51,46,100,78,46,0.00,40.00,12,4,22,0.00
2013-5-10,84,67,51,59,53,-100,100,70,34,0.00,40.00,13,4,25,0.00
2013-5-11,95,70,50,59,52,-100,100,66,19,0.00,40.00,12,4,22,0.00
2013-5-12,99,78,55,59,52,43,99,51,16,0.00,40.00,16,5,84,0.00
2013-5-13,97,76,60,50,47,25,66,42,9,0.00,40.00,17,4,31,0.00
2013-5-14,84,65,50,56,51,43,90,63,29,0.00,40.00,8,4,28,0.00
2013-5-15,75,62,49,55,52,48,99,74,46,0.00,40.00,12,5,73,0.00
2013-5-16,72,53,49,55,29,-100,99,78,55,0.00,40.00,10,4,24,0.00
2013-5-17,77,61,49,56,46,-100,100,73,45,0.00,40.00,11,4,45,0.00
2013-5-18,79,63,47,54,50,47,99,68,35,0.00,40.00,9,4,18,0.00
2013-5-19,87,70,53,52,47,34,77,49,24,0.00,40.00,10,5,22,0.00
2013-5-20,92,67,49,56,48,37,99,60,17,0.00,40.00,12,4,22,0.00
2013-5-21,84,68,54,59,54,44,99,64,35,0.00,40.00,11,4,23,0.00
2013-5-22,77,62,50,55,51,45,99,71,42,0.00,40.00,13,4,24,0.00
2013-5-23,72,59,47,50,46,40,99,64,38,0.00,40.00,10,5,22,0.00
2013-5-24,70,59,43,50,45,38,88,63,44,0.00,40.00,16,6,27,0.00
2013-5-25,73,60,46,51,48,44,98,66,41,0.00,40.00,13,5,53,0.00
2013-5-26,73,61,46,52,49,46,99,67,44,0.00,40.00,11,5,90,0.00
2013-5-27,86,66,48,55,50,43,99,61,30,0.00,40.00,11,4,25,0.00
2013-5-28,90,73,54,56,48,38,80,46,17,0.00,40.00,12,5,33,0.00
2013-5-29,90,75,57,55,49,37,73,42,19,0.00,40.00,19,7,37,0.00
2013-5-30,87,70,53,56,51,46,83,54,30,0.00,40.00,9,4,17,0.00
2013-5-31,89,69,51,58,54,48,99,63,34,0.00,40.00,9,4,18,0.00
2013-6-1,99,67,52,61,56,51,99,74,22,0.00,40.00,8,3,41,0.00
2013-6-2,79,66,56,62,59,56,100,80,49,0.00,40.00,9,4,38,0.00
2013-6-3,75,65,56,61,57,53,99,76,50,0.00,40.00,12,4,23,0.00
2013-6-4,75,64,54,59,55,50,99,75,50,0.00,40.00,10,5,25,0.00
2013-6-5,75,62,51,56,53,50,99,75,49,0.00,40.00,10,5,24,0.00
2013-6-6,81,64,50,58,54,50,100,74,44,0.00,40.00,9,4,21,0.00
2013-6-7,86,65,53,58,56,51,99,77,39,0.00,40.00,8,4,40,0.00
2013-6-8,78,66,57,59,58,56,99,80,52,0.00,40.00,11,4,20,0.00
2013-6-9,76,65,57,59,58,55,99,80,55,0.00,40.00,10,4,38,0.00
2013-6-10,77,67,59,57,54,51,87,65,44,0.00,40.00,13,5,53,0.00
2013-6-11,91,70,52,60,55,50,99,64,25,0.00,40.00,12,4,26,0.00
2013-6-12,81,65,55,61,57,54,100,78,47,0.00,40.00,11,4,24,0.00
2013-6-13,80,67,56,60,57,53,92,73,45,0.00,40.00,9,4,19,0.00
2013-6-14,81,65,52,58,56,52,100,75,45,0.00,40.00,11,5,22,0.00
2013-6-15,74,64,55,60,56,53,99,80,55,0.00,40.00,13,5,24,0.00
2013-6-16,87,65,53,59,56,53,100,77,33,0.00,40.00,10,4,23,0.00
2013-6-17,87,65,51,61,56,51,100,77,34,0.00,40.00,7,3,48,0.00
2013-6-18,83,68,52,58,55,49,99,66,32,0.00,40.00,13,4,23,0.00
2013-6-19,90,69,51,55,50,37,99,58,21,0.00,40.00,9,5,21,0.00
2013-6-20,85,63,52,46,38,32,55,40,23,0.00,40.00,9,4,19,0.00
2013-6-22,81,74,59,58,56,48,80,53,43,0.00,40.00,12,6,24,0.00
2013-6-23,72,62,53,58,55,52,99,80,60,0.00,40.00,18,5,55,0.00
2013-6-24,70,63,52,57,55,52,99,78,60,0.00,40.00,8,4,39,0.00
2013-6-25,83,68,54,59,57,54,99,70,43,0.00,40.00,12,4,42,0.00
2013-6-26,92,72,57,62,58,55,97,66,31,0.00,40.00,10,3,92,0.00
2013-6-27,97,72,60,63,58,56,87,65,27,0.00,40.00,10,3,20,0.00
2013-6-28,96,74,61,63,59,56,87,64,26,0.00,40.00,10,3,22,0.00
2013-6-29,100,76,62,64,58,54,82,60,22,0.00,40.00,12,4,25,0.00
2013-6-30,104,78,64,61,56,50,69,51,17,0.00,40.00,10,4,22,0.00
2013-7-1,98,74,61,66,60,55,88,64,24,0.00,40.00,4,2,13,0.00
2013-7-2,95,72,63,64,60,49,93,69,21,0.00,40.00,6,2,22,0.00
2013-7-3,91,69,59,62,61,57,100,78,33,0.00,40.00,6,3,25,0.00
2013-7-4,92,70,61,64,61,53,100,77,28,0.00,40.00,9,3,21,0.00
2013-7-5,87,70,60,63,61,58,99,74,37,0.00,40.00,6,3,21,0.00
2013-7-6,89,69,60,63,61,56,100,78,34,0.00,40.00,8,3,18,0.00
2013-7-7,90,69,58,63,58,54,100,74,30,0.00,40.00,12,4,25,0.00
2013-7-8,97,68,54,60,56,46,99,70,19,0.00,40.00,14,3,24,0.00
2013-7-9,95,70,58,60,54,49,71,60,21,0.00,40.00,9,3,27,0.00
2013-7-10,87,71,60,62,53,-100,80,57,36,0.00,40.00,8,3,20,0.00
2013-7-11,86,73,65,63,60,56,84,65,46,0.00,40.00,6,3,14,0.00
2013-7-12,90,72,58,64,60,54,99,72,33,0.00,40.00,10,4,19,0.00
2013-7-13,89,70,56,62,57,49,100,70,28,0.00,40.00,14,4,29,0.00
2013-7-14,95,73,55,62,57,52,99,64,24,0.00,40.00,11,4,22,0.00
2013-7-15,90,72,57,60,55,49,93,62,26,0.00,40.00,13,4,28,0.00
2013-7-16,87,78,61,55,49,41,68,40,21,0.00,40.00,12,7,26,0.00
2013-7-17,90,72,54,55,51,42,87,53,20,0.00,40.00,14,5,26,0.00
2013-7-18,93,72,53,58,53,47,91,57,22,0.00,40.00,14,4,26,0.00
2013-7-19,91,70,55,60,55,49,92,63,27,0.00,40.00,11,4,20,0.00
2013-7-20,89,68,55,61,54,-100,93,68,36,0.00,40.00,7,3,17,0.00
2013-7-21,86,70,62,63,60,56,93,73,47,0.00,40.00,7,3,16,0.00
2013-7-22,89,73,63,67,62,57,100,74,37,0.00,40.00,8,3,51,0.02
2013-7-23,86,70,59,64,59,55,96,71,39,0.00,40.00,11,4,24,0.01
2013-7-24,88,70,56,61,57,52,97,68,33,0.00,40.00,11,4,26,0.00
2013-7-25,88,70,57,61,57,54,99,71,35,0.00,40.00,11,4,21,0.00
2013-7-26,92,70,56,61,58,54,99,71,31,0.00,40.00,8,3,20,0.00
2013-7-27,91,71,58,61,58,56,99,69,33,0.00,40.00,8,3,38,0.00
2013-7-28,82,66,58,60,58,56,99,78,43,0.00,40.00,9,4,21,0.00
2013-7-29,84,66,57,59,57,53,98,77,38,0.00,40.00,8,3,17,0.00
2013-7-30,82,66,54,59,55,51,99,71,42,0.00,40.00,8,4,20,0.00
2013-7-31,78,64,52,57,54,51,99,75,45,0.00,40.00,8,4,19,0.00
2013-8-1,83,65,54,58,56,51,99,74,43,0.00,40.00,7,3,17,0.00
2013-8-2,83,66,52,61,55,52,99,73,37,0.00,40.00,9,4,17,0.00
2013-8-3,87,66,54,60,55,48,99,72,30,0.00,40.00,8,4,17,0.00
2013-8-4,87,65,53,59,53,48,100,72,28,0.00,40.00,9,3,18,0.00
2013-8-5,88,67,50,58,50,43,99,60,21,0.00,40.00,11,4,20,0.00
2013-8-6,81,66,54,58,53,48,99,69,34,0.00,40.00,13,4,26,0.00
2013-8-7,82,63,49,59,53,48,99,75,35,0.00,40.00,11,4,53,0.00
2013-8-8,83,66,51,57,54,51,99,71,35,0.00,40.00,13,5,28,0.00
2013-8-9,84,67,54,59,54,47,99,67,28,0.00,40.00,11,4,23,0.00
2013-8-10,79,66,51,59,55,50,98,69,46,0.00,40.00,11,4,23,0.00
2013-8-11,84,68,53,60,55,51,99,68,34,0.00,40.00,11,4,23,0.00
2013-8-12,87,67,55,61,56,52,100,72,35,0.00,40.00,10,4,23,0.00
2013-8-13,92,70,54,61,54,-100,100,67,27,0.00,40.00,7,3,19,0.00
2013-8-14,96,72,57,62,58,51,100,68,22,0.00,40.00,13,4,20,0.00
2013-8-15,95,64,56,62,44,-100,100,67,22,0.00,40.00,13,4,23,0.00
2013-8-16,97,70,57,62,50,-100,89,59,16,0.00,40.00,11,3,21,0.00
2013-8-17,96,74,56,60,51,-100,82,51,18,0.00,40.00,9,3,19,0.00
2013-8-18,97,72,54,62,55,48,97,63,20,0.00,40.00,11,4,17,0.00
2013-8-19,92,66,57,61,49,-100,100,69,29,0.00,40.00,7,3,16,0.00
2013-8-20,93,68,55,61,52,-100,100,68,23,0.00,40.00,7,3,18,0.00
2013-8-21,95,72,52,57,49,38,85,52,14,0.00,40.00,8,3,19,0.00
2013-8-22,96,71,53,52,45,40,72,46,15,0.00,40.00,9,4,20,0.00
2013-8-23,94,73,53,52,45,40,65,42,18,0.00,40.00,9,4,19,0.00
2013-8-24,95,71,54,55,47,-100,74,49,20,0.00,40.00,13,4,26,0.00
2013-8-25,97,71,53,52,47,41,79,50,16,0.00,40.00,11,4,20,0.00
2013-8-26,97,74,53,56,44,35,64,39,17,0.00,40.00,10,4,49,0.00
2013-8-27,98,77,67,55,47,42,43,36,24,0.00,40.00,5,2,13,0.00
2013-8-28,96,89,68,59,53,41,46,30,19,0.00,40.00,13,7,21,0.00
2013-8-29,100,80,63,61,50,45,68,39,19,0.00,40.00,15,4,25,0.00
2013-8-30,101,83,66,64,56,49,59,42,20,0.00,40.00,6,3,18,0.00
2013-8-31,93,80,71,68,62,-100,73,57,38,0.00,40.00,12,4,20,0.00
2013-9-1,90,79,69,68,66,63,82,66,48,0.00,40.00,11,4,52,0.00
2013-9-2,94,78,64,69,64,61,98,65,34,0.00,40.00,11,5,23,0.00
2013-9-3,96,80,65,63,58,53,83,53,26,0.00,40.00,11,4,21,0.00
2013-9-4,99,81,64,59,55,53,69,45,22,0.00,40.00,14,5,25,0.00
2013-9-5,100,77,64,59,52,47,68,47,19,0.00,40.00,10,4,20,0.00
2013-9-6,102,83,63,59,49,40,68,36,17,0.00,40.00,16,5,25,0.00
2013-9-7,99,79,63,58,44,-100,71,34,13,0.00,40.00,14,5,28,0.00
2013-9-8,94,75,61,59,52,48,80,51,22,0.00,40.00,13,4,40,0.00
2013-9-9,90,70,57,59,55,50,92,66,26,0.00,40.00,9,4,23,0.00
2013-9-10,84,69,57,60,57,53,99,69,38,0.00,40.00,7,4,16,0.00
2013-9-11,82,67,55,60,56,53,99,72,38,0.00,40.00,8,4,20,0.00
2013-9-12,89,70,51,55,50,45,93,56,23,0.00,40.00,13,4,23,0.00
2013-9-13,94,71,55,58,50,45,69,52,20,0.00,40.00,9,3,17,0.00
2013-9-14,99,76,59,56,50,-100,75,47,19,0.00,40.00,9,3,33,0.00
2013-9-15,101,76,59,56,51,46,77,47,20,0.00,40.00,8,3,18,0.00
2013-9-16,98,73,55,53,47,41,72,45,14,0.00,40.00,10,4,48,0.00
2013-9-17,86,67,51,58,49,44,78,56,25,0.00,40.00,9,4,19,0.00
2013-9-18,64,57,54,57,52,50,92,83,74,0.00,40.00,3,2,7,0.00
2013-9-19,87,68,52,60,56,52,99,72,37,0.00,40.00,8,4,18,0.00
2013-9-20,74,64,60,61,59,57,98,85,61,0.00,40.00,12,4,25,0.00
2013-9-21,74,64,56,61,55,-100,95,77,50,0.00,40.00,17,5,34,0.00
2013-9-22,84,66,49,53,45,36,99,57,23,0.00,40.00,14,4,31,0.00
2013-9-23,95,69,50,39,36,34,54,34,12,0.00,40.00,11,4,20,0.00
2013-9-24,90,69,55,49,39,32,59,36,16,0.00,40.00,11,4,23,0.00
2013-9-25,78,64,50,54,49,43,85,59,33,0.00,40.00,11,4,24,0.00
2013-9-26,74,59,47,50,43,27,90,62,25,0.00,40.00,15,5,31,0.00
2013-9-27,82,67,50,33,26,20,40,23,11,0.00,40.00,12,6,24,0.00
2013-9-28,88,63,49,31,24,-100,34,25,10,0.00,40.00,10,4,22,0.00
2013-9-29,89,65,50,37,31,26,42,30,13,0.00,40.00,11,3,23,0.00
2013-9-30,91,70,50,52,40,31,56,36,19,0.00,40.00,8,3,17,0.00
2013-10-1,78,66,58,56,51,49,74,60,41,0.00,40.00,9,4,21,0.00
2013-10-2,73,63,53,58,54,50,99,75,57,0.00,40.00,12,5,25,0.00
2013-10-3,74,62,51,60,54,51,100,81,51,0.00,40.00,10,4,20,0.00
2013-10-4,89,62,46,54,40,18,100,63,12,0.00,40.00,7,3,19,0.00
2013-10-5,95,78,53,27,19,9,27,13,4,0.00,40.00,8,5,21,0.00
2013-10-6,95,70,49,24,20,11,27,17,5,0.00,40.00,13,4,23,0.00
2013-10-7,88,61,51,49,31,20,73,36,13,0.00,40.00,11,4,22,0.00
2013-10-8,78,59,43,54,47,37,88,68,32,0.00,40.00,9,4,36,0.00
2013-10-9,63,57,44,53,46,37,86,69,39,0.00,40.00,11,6,36,0.00
2013-10-10,70,56,41,50,44,37,91,68,37,0.00,40.00,7,4,19,0.00
2013-10-11,75,58,44,52,47,41,99,71,40,0.00,40.00,12,4,23,0.00
2013-10-12,78,58,43,52,44,-100,91,67,32,0.00,40.00,12,4,26,0.00
2013-10-13,67,55,45,55,49,45,99,83,55,0.00,40.00,21,4,34,0.00
2013-10-14,84,58,45,53,44,35,100,69,20,0.00,40.00,8,4,49,0.00
2013-10-15,87,66,48,36,29,25,46,29,11,0.00,40.00,9,4,35,0.00
2013-10-16,90,75,55,34,22,13,32,16,6,0.00,40.00,8,4,19,0.00
2013-10-17,84,62,46,39,29,22,57,31,13,0.00,40.00,9,4,22,0.00
2013-10-18,91,63,46,41,35,30,62,40,16,0.00,40.00,6,2,12,0.00
2013-10-19,90,65,49,37,28,-100,46,29,11,0.00,40.00,13,5,23,0.00
2013-10-20,85,63,46,54,40,27,87,46,24,0.00,40.00,11,3,25,0.00
2013-10-21,84,62,41,54,47,41,99,64,30,0.00,40.00,7,3,14,0.00
2013-10-22,85,59,43,55,46,37,90,64,30,0.00,40.00,6,3,14,0.00
2013-10-23,71,58,48,55,52,46,100,84,52,0.00,40.00,8,3,15,0.00
2013-10-24,71,60,49,55,52,49,99,77,52,0.00,40.00,9,3,21,0.00
2013-10-25,82,60,51,57,53,50,100,83,41,0.00,40.00,6,2,12,0.00
2013-10-26,92,63,43,52,41,-100,99,57,13,0.00,40.00,5,3,10,0.00
2013-10-27,81,61,46,55,42,29,91,54,28,0.00,40.00,10,3,19,0.00
2013-10-28,63,55,47,54,46,-100,99,78,46,0.00,40.00,11,6,25,0.03
2013-10-29,65,54,45,50,47,45,99,81,50,0.00,40.00,11,4,24,0.03
2013-10-30,72,56,41,47,41,37,99,65,30,0.00,40.00,9,4,19,0.00
2013-10-31,85,59,41,39,36,33,82,48,16,0.00,40.00,6,3,16,0.00
2013-11-1,87,61,44,36,31,28,59,38,12,0.00,40.00,7,3,15,0.00
2013-11-2,86,54,47,38,28,-100,55,41,13,0.00,40.00,11,3,20,0.00
2013-11-3,69,55,43,53,46,34,96,73,48,0.00,40.00,9,4,20,0.00
2013-11-4,70,58,46,52,47,33,99,70,44,0.00,40.00,10,4,19,0.00
2013-11-5,75,56,42,35,28,24,65,39,16,0.00,40.00,10,4,20,0.00
2013-11-6,80,56,42,23,21,19,41,28,11,0.00,40.00,7,3,13,0.00
2013-11-7,89,62,48,24,21,20,34,23,8,0.00,40.00,10,4,20,0.00
2013-11-8,82,58,45,42,30,18,61,37,14,0.00,40.00,6,3,14,0.00
2013-11-9,78,56,44,49,30,-100,55,41,19,0.00,40.00,5,2,10,0.00
2013-11-10,84,61,43,47,36,16,69,44,8,0.00,40.00,7,4,19,0.00
2013-11-11,84,58,42,41,32,27,62,41,14,0.00,40.00,5,3,13,0.00
2013-11-12,84,61,50,41,33,28,50,36,17,0.00,40.00,5,2,14,0.00
2013-11-13,90,61,51,34,28,26,39,31,11,0.00,40.00,11,3,20,0.00
2013-11-14,87,62,52,36,32,27,50,34,14,0.00,40.00,8,2,19,0.00
2013-11-15,68,56,46,54,45,36,88,68,50,0.00,40.00,7,3,15,0.00
2013-11-16,68,54,45,53,46,-100,99,80,51,0.00,40.00,9,4,19,0.00
2013-11-17,71,55,44,50,47,44,99,78,39,0.00,40.00,8,4,16,0.00
2013-11-18,67,53,43,53,48,43,100,84,57,0.00,40.00,9,4,19,0.00
2013-11-19,67,56,46,51,49,46,100,79,53,0.00,40.00,7,3,15,0.00
2013-11-20,69,58,50,58,52,47,100,82,51,0.00,40.00,37,4,38,0.20
2013-11-21,68,58,52,62,55,51,100,89,63,0.00,40.00,8,3,37,0.65
2013-11-22,70,54,43,51,42,35,99,68,30,0.00,40.00,10,3,21,0.00
2013-11-23,68,52,41,44,38,-100,91,65,31,0.00,40.00,6,3,14,0.00
2013-11-24,70,54,42,43,41,37,99,65,31,0.00,40.00,8,3,19,0.00
2013-11-25,73,54,39,42,39,35,99,63,27,0.00,40.00,10,4,45,0.00
2013-11-26,80,58,42,43,38,33,80,53,20,0.00,40.00,5,3,12,0.00
2013-11-27,77,61,45,41,38,32,79,47,21,0.00,40.00,6,4,20,0.00
2013-11-28,69,56,44,48,42,33,83,62,26,0.00,40.00,6,3,18,0.00
2013-11-29,72,57,49,55,47,39,100,72,30,0.00,40.00,6,3,33,0.12
2013-11-30,76,57,43,45,39,-100,99,59,23,0.00,40.00,9,4,16,0.01
2013-12-1,83,61,41,37,33,29,77,43,16,0.00,40.00,7,4,32,0.00
2013-12-2,81,60,46,36,33,29,67,40,18,0.00,40.00,11,4,28,0.00
2013-12-3,69,53,40,50,42,33,86,67,42,0.00,40.00,8,4,18,0.00
2013-12-4,63,48,36,39,23,19,86,40,19,0.00,40.00,7,4,14,0.00
2013-12-5,60,43,32,32,26,22,76,53,29,0.00,40.00,8,4,18,0.00
2013-12-6,60,43,31,35,30,23,83,63,31,0.00,40.00,7,4,15,0.00
2013-12-7,57,42,32,50,32,-100,100,72,35,0.00,40.00,11,4,23,0.37
2013-12-8,57,40,29,37,28,25,96,66,35,0.00,40.00,8,4,16,0.05
2013-12-11,75,65,38,27,21,12,54,21,9,0.00,40.00,6,2,11,0.00
2013-12-12,73,51,38,29,25,17,66,39,12,0.00,40.00,9,3,16,0.00
2013-12-13,67,50,32,45,37,27,93,66,27,0.00,40.00,7,3,64,0.00
2013-12-14,75,59,37,35,22,-100,78,35,12,0.00,40.00,8,4,15,0.00
2013-12-15,84,74,58,33,27,19,28,18,9,0.00,40.00,4,2,7,0.00
2013-12-16,86,75,64,34,28,18,26,18,9,0.00,40.00,7,4,14,0.00
2013-12-17,84,68,57,37,32,26,36,27,12,0.00,40.00,5,2,9,0.00
2013-12-18,71,59,46,49,40,29,99,53,29,0.00,40.00,8,3,22,0.00
2013-12-19,58,50,40,50,45,35,100,85,42,0.00,40.00,12,4,23,0.01
2013-12-20,68,51,36,43,36,32,100,62,29,0.00,40.00,9,4,17,0.01
2013-12-21,65,47,36,47,37,-100,100,73,38,0.00,40.00,7,3,15,0.00
2013-12-22,73,50,37,47,42,37,100,81,29,0.00,40.00,7,3,15,0.00
2013-12-23,76,55,39,42,37,31,99,59,20,0.00,40.00,8,3,17,0.00
2013-12-24,85,65,41,34,32,30,71,34,14,0.00,40.00,5,3,9,0.00
2013-12-25,86,67,48,35,26,18,48,24,8,0.00,40.00,8,3,13,0.00
2013-12-26,85,63,40,23,16,7,35,19,5,0.00,40.00,7,4,13,0.00
2013-12-27,84,65,42,21,14,6,33,16,5,0.00,40.00,5,3,11,0.00
2013-12-28,77,54,44,32,20,-100,58,31,10,0.00,40.00,8,4,17,0.00
2013-12-29,79,58,38,26,21,9,55,28,7,0.00,40.00,5,3,10,0.00
2013-12-30,77,57,39,26,20,14,43,26,10,0.00,40.00,8,4,18,0.00
2013-12-31,77,55,39,42,30,18,69,42,15,0.00,40.00,5,3,11,0.00
2014-1-1,81,53,39,34,28,24,70,43,15,0.00,40.00,5,2,17,0.00
2014-1-2,83,64,43,30,26,21,47,27,11,0.00,40.00,9,3,16,0.00